sensor_id;sensor_type;location;lat;lon;timestamp;P1;durP1;ratioP1;P2;durP2;ratioP2
10090;SDS011;5084;51.386;6.778;2024-02-26T00:02:23;1.43;;;1.33;;
10090;SDS011;5084;51.386;6.778;2024-02-26T00:04:50;1.40;;;1.30;;
10090;SDS011;5084;51.386;6.778;2024-02-26T00:07:16;1.87;;;1.47;;
10090;SDS011;5084;51.386;6.778;2024-02-26T00:09:42;1.30;;;1.20;;
10090;SDS011;5084;51.386;6.778;2024-02-26T00:12:08;1.70;;;1.60;;
10090;SDS011;5084;51.386;6.778;2024-02-26T00:14:34;1.43;;;1.13;;
10090;SDS011;5084;51.386;6.778;2024-02-26T00:17:00;1.47;;;1.33;;
10090;SDS011;5084;51.386;6.778;2024-02-26T00:19:26;2.13;;;1.70;;
10090;SDS011;5084;51.386;6.778;2024-02-26T00:21:52;1.40;;;1.30;;
10090;SDS011;5084;51.386;6.778;2024-02-26T00:24:21;2.73;;;1.50;;
10090;SDS011;5084;51.386;6.778;2024-02-26T00:26:47;1.70;;;1.40;;
10090;SDS011;5084;51.386;6.778;2024-02-26T00:29:18;1.80;;;1.40;;
10090;SDS011;5084;51.386;6.778;2024-02-26T00:31:44;1.30;;;1.00;;
10090;SDS011;5084;51.386;6.778;2024-02-26T00:34:10;1.47;;;1.20;;
10090;SDS011;5084;51.386;6.778;2024-02-26T00:36:36;1.23;;;1.13;;
10090;SDS011;5084;51.386;6.778;2024-02-26T00:39:02;1.40;;;1.30;;
10090;SDS011;5084;51.386;6.778;2024-02-26T00:41:29;1.60;;;1.30;;
10090;SDS011;5084;51.386;6.778;2024-02-26T00:43:55;2.73;;;1.30;;
10090;SDS011;5084;51.386;6.778;2024-02-26T00:46:21;1.67;;;1.40;;
10090;SDS011;5084;51.386;6.778;2024-02-26T00:48:47;2.17;;;1.60;;
10090;SDS011;5084;51.386;6.778;2024-02-26T00:51:13;1.60;;;1.50;;
10090;SDS011;5084;51.386;6.778;2024-02-26T00:53:40;2.20;;;1.80;;
10090;SDS011;5084;51.386;6.778;2024-02-26T00:56:06;1.57;;;1.47;;
10090;SDS011;5084;51.386;6.778;2024-02-26T00:58:32;1.10;;;1.00;;
10090;SDS011;5084;51.386;6.778;2024-02-26T01:00:58;1.40;;;1.30;;
10090;SDS011;5084;51.386;6.778;2024-02-26T01:03:24;1.33;;;1.17;;
10090;SDS011;5084;51.386;6.778;2024-02-26T01:05:50;2.50;;;1.50;;
10090;SDS011;5084;51.386;6.778;2024-02-26T01:08:16;1.30;;;1.20;;
10090;SDS011;5084;51.386;6.778;2024-02-26T01:10:42;1.50;;;1.00;;
10090;SDS011;5084;51.386;6.778;2024-02-26T01:13:08;2.40;;;1.60;;
10090;SDS011;5084;51.386;6.778;2024-02-26T01:15:34;1.23;;;1.13;;
10090;SDS011;5084;51.386;6.778;2024-02-26T01:18:00;1.80;;;1.40;;
10090;SDS011;5084;51.386;6.778;2024-02-26T01:20:26;1.47;;;1.37;;
10090;SDS011;5084;51.386;6.778;2024-02-26T01:22:52;1.37;;;1.27;;
10090;SDS011;5084;51.386;6.778;2024-02-26T01:25:18;1.77;;;1.10;;
10090;SDS011;5084;51.386;6.778;2024-02-26T01:27:44;2.60;;;1.70;;
10090;SDS011;5084;51.386;6.778;2024-02-26T01:30:11;1.63;;;1.30;;
10090;SDS011;5084;51.386;6.778;2024-02-26T01:32:37;1.40;;;1.30;;
10090;SDS011;5084;51.386;6.778;2024-02-26T01:35:03;1.60;;;1.20;;
10090;SDS011;5084;51.386;6.778;2024-02-26T01:37:30;1.83;;;1.60;;
10090;SDS011;5084;51.386;6.778;2024-02-26T01:39:56;2.93;;;1.50;;
10090;SDS011;5084;51.386;6.778;2024-02-26T01:42:22;1.40;;;1.30;;
10090;SDS011;5084;51.386;6.778;2024-02-26T01:44:48;1.50;;;1.40;;
10090;SDS011;5084;51.386;6.778;2024-02-26T01:47:14;1.60;;;1.40;;
10090;SDS011;5084;51.386;6.778;2024-02-26T01:49:40;1.40;;;1.30;;
10090;SDS011;5084;51.386;6.778;2024-02-26T01:52:08;1.63;;;1.50;;
10090;SDS011;5084;51.386;6.778;2024-02-26T01:54:36;1.33;;;1.23;;
10090;SDS011;5084;51.386;6.778;2024-02-26T01:57:03;1.27;;;1.17;;
10090;SDS011;5084;51.386;6.778;2024-02-26T01:59:29;1.43;;;1.27;;
10090;SDS011;5084;51.386;6.778;2024-02-26T02:01:57;1.30;;;1.17;;
10090;SDS011;5084;51.386;6.778;2024-02-26T02:04:23;2.67;;;1.53;;
10090;SDS011;5084;51.386;6.778;2024-02-26T02:06:50;1.20;;;1.10;;
10090;SDS011;5084;51.386;6.778;2024-02-26T02:09:16;1.20;;;1.10;;
10090;SDS011;5084;51.386;6.778;2024-02-26T02:11:42;1.00;;;1.00;;
10090;SDS011;5084;51.386;6.778;2024-02-26T02:14:09;1.93;;;1.10;;
10090;SDS011;5084;51.386;6.778;2024-02-26T02:16:35;1.17;;;1.10;;
10090;SDS011;5084;51.386;6.778;2024-02-26T02:19:01;3.00;;;1.40;;
10090;SDS011;5084;51.386;6.778;2024-02-26T02:21:27;2.63;;;1.13;;
10090;SDS011;5084;51.386;6.778;2024-02-26T02:23:54;1.20;;;1.10;;
10090;SDS011;5084;51.386;6.778;2024-02-26T02:26:20;1.20;;;1.10;;
10090;SDS011;5084;51.386;6.778;2024-02-26T02:28:46;1.67;;;1.30;;
10090;SDS011;5084;51.386;6.778;2024-02-26T02:31:13;1.60;;;1.03;;
10090;SDS011;5084;51.386;6.778;2024-02-26T02:33:39;1.23;;;1.13;;
10090;SDS011;5084;51.386;6.778;2024-02-26T02:36:05;2.30;;;1.40;;
10090;SDS011;5084;51.386;6.778;2024-02-26T02:38:34;1.20;;;1.10;;
10090;SDS011;5084;51.386;6.778;2024-02-26T02:41:00;4.50;;;1.30;;
10090;SDS011;5084;51.386;6.778;2024-02-26T02:43:26;1.60;;;1.07;;
10090;SDS011;5084;51.386;6.778;2024-02-26T02:45:52;1.10;;;1.10;;
10090;SDS011;5084;51.386;6.778;2024-02-26T02:48:19;1.33;;;1.23;;
10090;SDS011;5084;51.386;6.778;2024-02-26T02:50:45;1.50;;;0.87;;
10090;SDS011;5084;51.386;6.778;2024-02-26T02:53:11;1.20;;;1.10;;
10090;SDS011;5084;51.386;6.778;2024-02-26T02:55:37;0.97;;;0.97;;
10090;SDS011;5084;51.386;6.778;2024-02-26T02:58:03;1.30;;;1.20;;
10090;SDS011;5084;51.386;6.778;2024-02-26T03:00:29;1.20;;;1.10;;
10090;SDS011;5084;51.386;6.778;2024-02-26T03:02:55;2.33;;;1.40;;
10090;SDS011;5084;51.386;6.778;2024-02-26T03:05:21;1.10;;;1.00;;
10090;SDS011;5084;51.386;6.778;2024-02-26T03:07:47;1.07;;;1.00;;
10090;SDS011;5084;51.386;6.778;2024-02-26T03:10:13;1.57;;;1.47;;
10090;SDS011;5084;51.386;6.778;2024-02-26T03:12:39;1.73;;;1.30;;
10090;SDS011;5084;51.386;6.778;2024-02-26T03:15:05;2.30;;;1.37;;
10090;SDS011;5084;51.386;6.778;2024-02-26T03:17:31;2.33;;;1.20;;
10090;SDS011;5084;51.386;6.778;2024-02-26T03:19:57;1.30;;;1.10;;
10090;SDS011;5084;51.386;6.778;2024-02-26T03:22:23;1.07;;;1.00;;
10090;SDS011;5084;51.386;6.778;2024-02-26T03:24:49;1.30;;;1.10;;
10090;SDS011;5084;51.386;6.778;2024-02-26T03:27:15;1.50;;;1.40;;
10090;SDS011;5084;51.386;6.778;2024-02-26T03:29:41;1.43;;;1.33;;
10090;SDS011;5084;51.386;6.778;2024-02-26T03:32:07;1.80;;;1.57;;
10090;SDS011;5084;51.386;6.778;2024-02-26T03:34:33;1.23;;;1.23;;
10090;SDS011;5084;51.386;6.778;2024-02-26T03:37:00;2.43;;;1.37;;
10090;SDS011;5084;51.386;6.778;2024-02-26T03:39:26;1.53;;;1.40;;
10090;SDS011;5084;51.386;6.778;2024-02-26T03:41:52;1.50;;;1.40;;
10090;SDS011;5084;51.386;6.778;2024-02-26T03:44:19;1.67;;;1.37;;
10090;SDS011;5084;51.386;6.778;2024-02-26T03:46:45;1.63;;;1.53;;
10090;SDS011;5084;51.386;6.778;2024-02-26T03:49:11;1.23;;;1.10;;
10090;SDS011;5084;51.386;6.778;2024-02-26T03:51:38;1.47;;;1.30;;
10090;SDS011;5084;51.386;6.778;2024-02-26T03:54:04;1.60;;;1.50;;
10090;SDS011;5084;51.386;6.778;2024-02-26T03:56:30;1.90;;;1.47;;
10090;SDS011;5084;51.386;6.778;2024-02-26T03:58:56;4.03;;;1.60;;
10090;SDS011;5084;51.386;6.778;2024-02-26T04:01:24;2.13;;;1.47;;
10090;SDS011;5084;51.386;6.778;2024-02-26T04:03:50;1.70;;;1.40;;
10090;SDS011;5084;51.386;6.778;2024-02-26T04:06:17;2.10;;;1.43;;
10090;SDS011;5084;51.386;6.778;2024-02-26T04:08:45;1.50;;;1.23;;
10090;SDS011;5084;51.386;6.778;2024-02-26T04:11:12;2.50;;;1.60;;
10090;SDS011;5084;51.386;6.778;2024-02-26T04:13:38;2.23;;;1.60;;
10090;SDS011;5084;51.386;6.778;2024-02-26T04:16:04;1.70;;;1.53;;
10090;SDS011;5084;51.386;6.778;2024-02-26T04:18:31;1.60;;;1.50;;
10090;SDS011;5084;51.386;6.778;2024-02-26T04:20:57;1.83;;;1.67;;
10090;SDS011;5084;51.386;6.778;2024-02-26T04:23:23;1.40;;;1.30;;
10090;SDS011;5084;51.386;6.778;2024-02-26T04:25:49;1.40;;;1.20;;
10090;SDS011;5084;51.386;6.778;2024-02-26T04:28:15;1.50;;;1.40;;
10090;SDS011;5084;51.386;6.778;2024-02-26T04:30:41;3.47;;;1.37;;
10090;SDS011;5084;51.386;6.778;2024-02-26T04:33:07;1.67;;;1.57;;
10090;SDS011;5084;51.386;6.778;2024-02-26T04:35:33;2.33;;;1.80;;
10090;SDS011;5084;51.386;6.778;2024-02-26T04:38:00;2.70;;;1.90;;
10090;SDS011;5084;51.386;6.778;2024-02-26T04:40:26;2.00;;;1.53;;
10090;SDS011;5084;51.386;6.778;2024-02-26T04:42:52;1.40;;;1.30;;
10090;SDS011;5084;51.386;6.778;2024-02-26T04:45:18;3.33;;;1.50;;
10090;SDS011;5084;51.386;6.778;2024-02-26T04:47:44;1.50;;;1.40;;
10090;SDS011;5084;51.386;6.778;2024-02-26T04:50:10;1.60;;;1.50;;
10090;SDS011;5084;51.386;6.778;2024-02-26T04:52:36;1.60;;;1.50;;
10090;SDS011;5084;51.386;6.778;2024-02-26T04:55:02;1.70;;;1.50;;
10090;SDS011;5084;51.386;6.778;2024-02-26T04:57:29;3.57;;;1.60;;
10090;SDS011;5084;51.386;6.778;2024-02-26T04:59:55;1.53;;;1.30;;
10090;SDS011;5084;51.386;6.778;2024-02-26T05:02:21;2.17;;;1.53;;
10090;SDS011;5084;51.386;6.778;2024-02-26T05:04:47;2.27;;;1.40;;
10090;SDS011;5084;51.386;6.778;2024-02-26T05:07:13;1.77;;;1.67;;
10090;SDS011;5084;51.386;6.778;2024-02-26T05:09:39;1.80;;;1.70;;
10090;SDS011;5084;51.386;6.778;2024-02-26T05:12:07;2.30;;;1.60;;
10090;SDS011;5084;51.386;6.778;2024-02-26T05:14:33;2.07;;;1.70;;
10090;SDS011;5084;51.386;6.778;2024-02-26T05:16:59;1.67;;;1.57;;
10090;SDS011;5084;51.386;6.778;2024-02-26T05:19:25;2.03;;;1.40;;
10090;SDS011;5084;51.386;6.778;2024-02-26T05:21:51;1.87;;;1.50;;
10090;SDS011;5084;51.386;6.778;2024-02-26T05:24:17;1.70;;;1.60;;
10090;SDS011;5084;51.386;6.778;2024-02-26T05:26:46;2.93;;;1.80;;
10090;SDS011;5084;51.386;6.778;2024-02-26T05:29:12;2.00;;;1.83;;
10090;SDS011;5084;51.386;6.778;2024-02-26T05:31:38;1.50;;;1.40;;
10090;SDS011;5084;51.386;6.778;2024-02-26T05:34:04;1.83;;;1.30;;
10090;SDS011;5084;51.386;6.778;2024-02-26T05:36:31;1.80;;;1.43;;
10090;SDS011;5084;51.386;6.778;2024-02-26T05:38:59;1.73;;;1.27;;
10090;SDS011;5084;51.386;6.778;2024-02-26T05:41:25;2.00;;;1.60;;
10090;SDS011;5084;51.386;6.778;2024-02-26T05:43:54;2.07;;;1.53;;
10090;SDS011;5084;51.386;6.778;2024-02-26T05:46:20;1.77;;;1.50;;
10090;SDS011;5084;51.386;6.778;2024-02-26T05:48:47;1.70;;;1.47;;
10090;SDS011;5084;51.386;6.778;2024-02-26T05:51:14;1.83;;;1.53;;
10090;SDS011;5084;51.386;6.778;2024-02-26T05:53:43;1.97;;;1.30;;
10090;SDS011;5084;51.386;6.778;2024-02-26T05:56:09;1.70;;;1.50;;
10090;SDS011;5084;51.386;6.778;2024-02-26T05:58:35;1.50;;;1.40;;
10090;SDS011;5084;51.386;6.778;2024-02-26T06:01:01;1.50;;;1.40;;
10090;SDS011;5084;51.386;6.778;2024-02-26T06:03:27;1.73;;;1.57;;
10090;SDS011;5084;51.386;6.778;2024-02-26T06:05:53;2.33;;;1.80;;
10090;SDS011;5084;51.386;6.778;2024-02-26T06:08:19;2.23;;;1.77;;
10090;SDS011;5084;51.386;6.778;2024-02-26T06:10:45;1.60;;;1.50;;
10090;SDS011;5084;51.386;6.778;2024-02-26T06:13:11;1.83;;;1.70;;
10090;SDS011;5084;51.386;6.778;2024-02-26T06:15:37;2.20;;;1.60;;
10090;SDS011;5084;51.386;6.778;2024-02-26T06:18:03;1.73;;;1.63;;
10090;SDS011;5084;51.386;6.778;2024-02-26T06:20:29;1.90;;;1.70;;
10090;SDS011;5084;51.386;6.778;2024-02-26T06:22:55;2.30;;;1.80;;
10090;SDS011;5084;51.386;6.778;2024-02-26T06:25:21;1.70;;;1.60;;
10090;SDS011;5084;51.386;6.778;2024-02-26T06:27:47;2.53;;;1.90;;
10090;SDS011;5084;51.386;6.778;2024-02-26T06:30:13;2.90;;;2.00;;
10090;SDS011;5084;51.386;6.778;2024-02-26T06:32:39;2.53;;;1.80;;
10090;SDS011;5084;51.386;6.778;2024-02-26T06:35:06;2.40;;;2.03;;
10090;SDS011;5084;51.386;6.778;2024-02-26T06:37:34;2.50;;;1.67;;
10090;SDS011;5084;51.386;6.778;2024-02-26T06:40:00;2.33;;;1.50;;
10090;SDS011;5084;51.386;6.778;2024-02-26T06:42:29;2.37;;;2.07;;
10090;SDS011;5084;51.386;6.778;2024-02-26T06:44:55;2.03;;;1.83;;
10090;SDS011;5084;51.386;6.778;2024-02-26T06:47:21;2.10;;;1.90;;
10090;SDS011;5084;51.386;6.778;2024-02-26T06:49:47;1.80;;;1.60;;
10090;SDS011;5084;51.386;6.778;2024-02-26T06:52:13;2.50;;;2.13;;
10090;SDS011;5084;51.386;6.778;2024-02-26T06:54:39;2.03;;;1.50;;
10090;SDS011;5084;51.386;6.778;2024-02-26T06:57:05;1.90;;;1.80;;
10090;SDS011;5084;51.386;6.778;2024-02-26T06:59:31;2.00;;;1.80;;
10090;SDS011;5084;51.386;6.778;2024-02-26T07:01:57;2.53;;;2.00;;
10090;SDS011;5084;51.386;6.778;2024-02-26T07:04:23;2.07;;;1.60;;
10090;SDS011;5084;51.386;6.778;2024-02-26T07:06:49;1.60;;;1.50;;
10090;SDS011;5084;51.386;6.778;2024-02-26T07:09:15;1.90;;;1.80;;
10090;SDS011;5084;51.386;6.778;2024-02-26T07:11:41;2.30;;;1.70;;
10090;SDS011;5084;51.386;6.778;2024-02-26T07:14:08;2.70;;;1.73;;
10090;SDS011;5084;51.386;6.778;2024-02-26T07:16:35;4.63;;;1.73;;
10090;SDS011;5084;51.386;6.778;2024-02-26T07:19:00;3.07;;;1.90;;
10090;SDS011;5084;51.386;6.778;2024-02-26T07:21:27;2.07;;;1.87;;
10090;SDS011;5084;51.386;6.778;2024-02-26T07:23:53;2.77;;;2.40;;
10090;SDS011;5084;51.386;6.778;2024-02-26T07:26:19;2.00;;;1.63;;
10090;SDS011;5084;51.386;6.778;2024-02-26T07:28:45;2.07;;;1.70;;
10090;SDS011;5084;51.386;6.778;2024-02-26T07:31:12;2.73;;;2.00;;
10090;SDS011;5084;51.386;6.778;2024-02-26T07:33:38;2.50;;;1.83;;
10090;SDS011;5084;51.386;6.778;2024-02-26T07:36:04;2.43;;;2.00;;
10090;SDS011;5084;51.386;6.778;2024-02-26T07:38:30;2.10;;;1.90;;
10090;SDS011;5084;51.386;6.778;2024-02-26T07:40:56;2.17;;;1.90;;
10090;SDS011;5084;51.386;6.778;2024-02-26T07:43:22;2.17;;;1.87;;
10090;SDS011;5084;51.386;6.778;2024-02-26T07:45:48;2.30;;;1.73;;
10090;SDS011;5084;51.386;6.778;2024-02-26T07:48:14;3.30;;;2.23;;
10090;SDS011;5084;51.386;6.778;2024-02-26T07:50:40;3.27;;;1.90;;
10090;SDS011;5084;51.386;6.778;2024-02-26T07:53:06;2.37;;;1.90;;
10090;SDS011;5084;51.386;6.778;2024-02-26T07:55:33;2.13;;;1.97;;
10090;SDS011;5084;51.386;6.778;2024-02-26T07:57:58;2.13;;;1.90;;
10090;SDS011;5084;51.386;6.778;2024-02-26T08:00:25;2.50;;;2.13;;
10090;SDS011;5084;51.386;6.778;2024-02-26T08:02:51;2.00;;;1.80;;
10090;SDS011;5084;51.386;6.778;2024-02-26T08:05:17;2.63;;;1.97;;
10090;SDS011;5084;51.386;6.778;2024-02-26T08:07:43;4.10;;;2.50;;
10090;SDS011;5084;51.386;6.778;2024-02-26T08:10:09;3.53;;;1.80;;
10090;SDS011;5084;51.386;6.778;2024-02-26T08:12:38;2.63;;;2.23;;
10090;SDS011;5084;51.386;6.778;2024-02-26T08:15:04;2.37;;;2.17;;
10090;SDS011;5084;51.386;6.778;2024-02-26T08:17:31;1.63;;;1.53;;
10090;SDS011;5084;51.386;6.778;2024-02-26T08:19:58;1.90;;;1.70;;
10090;SDS011;5084;51.386;6.778;2024-02-26T08:22:24;3.43;;;2.10;;
10090;SDS011;5084;51.386;6.778;2024-02-26T08:24:50;2.80;;;2.40;;
10090;SDS011;5084;51.386;6.778;2024-02-26T08:27:16;2.10;;;1.73;;
10090;SDS011;5084;51.386;6.778;2024-02-26T08:29:42;4.23;;;2.17;;
10090;SDS011;5084;51.386;6.778;2024-02-26T08:32:08;2.17;;;1.80;;
10090;SDS011;5084;51.386;6.778;2024-02-26T08:34:34;2.10;;;1.90;;
10090;SDS011;5084;51.386;6.778;2024-02-26T08:37:00;2.70;;;1.80;;
10090;SDS011;5084;51.386;6.778;2024-02-26T08:39:26;4.33;;;1.90;;
10090;SDS011;5084;51.386;6.778;2024-02-26T08:41:52;3.13;;;2.13;;
10090;SDS011;5084;51.386;6.778;2024-02-26T08:44:19;2.10;;;1.90;;
10090;SDS011;5084;51.386;6.778;2024-02-26T08:46:45;2.17;;;1.93;;
10090;SDS011;5084;51.386;6.778;2024-02-26T08:49:11;2.20;;;2.00;;
10090;SDS011;5084;51.386;6.778;2024-02-26T08:51:43;2.40;;;2.20;;
10090;SDS011;5084;51.386;6.778;2024-02-26T08:54:09;2.10;;;1.90;;
10090;SDS011;5084;51.386;6.778;2024-02-26T08:56:35;2.03;;;1.90;;
10090;SDS011;5084;51.386;6.778;2024-02-26T08:59:01;2.40;;;2.20;;
10090;SDS011;5084;51.386;6.778;2024-02-26T09:01:29;2.90;;;1.80;;
10090;SDS011;5084;51.386;6.778;2024-02-26T09:03:55;2.43;;;1.70;;
10090;SDS011;5084;51.386;6.778;2024-02-26T09:06:21;2.97;;;1.97;;
10090;SDS011;5084;51.386;6.778;2024-02-26T09:08:47;2.43;;;1.60;;
10090;SDS011;5084;51.386;6.778;2024-02-26T09:11:13;2.83;;;2.10;;
10090;SDS011;5084;51.386;6.778;2024-02-26T09:13:39;2.93;;;2.10;;
10090;SDS011;5084;51.386;6.778;2024-02-26T09:16:06;2.37;;;1.87;;
10090;SDS011;5084;51.386;6.778;2024-02-26T09:18:32;1.67;;;1.57;;
10090;SDS011;5084;51.386;6.778;2024-02-26T09:20:58;2.03;;;1.70;;
10090;SDS011;5084;51.386;6.778;2024-02-26T09:23:24;2.67;;;1.40;;
10090;SDS011;5084;51.386;6.778;2024-02-26T09:25:50;4.63;;;1.93;;
10090;SDS011;5084;51.386;6.778;2024-02-26T09:28:16;2.13;;;1.93;;
10090;SDS011;5084;51.386;6.778;2024-02-26T09:30:43;1.80;;;1.70;;
10090;SDS011;5084;51.386;6.778;2024-02-26T09:33:09;2.30;;;2.10;;
10090;SDS011;5084;51.386;6.778;2024-02-26T09:35:35;2.87;;;2.00;;
10090;SDS011;5084;51.386;6.778;2024-02-26T09:38:01;2.20;;;2.00;;
10090;SDS011;5084;51.386;6.778;2024-02-26T09:40:27;2.47;;;1.97;;
10090;SDS011;5084;51.386;6.778;2024-02-26T09:42:55;3.43;;;2.33;;
10090;SDS011;5084;51.386;6.778;2024-02-26T09:45:25;2.30;;;2.10;;
10090;SDS011;5084;51.386;6.778;2024-02-26T09:47:52;4.63;;;2.33;;
10090;SDS011;5084;51.386;6.778;2024-02-26T09:50:20;4.70;;;2.10;;
10090;SDS011;5084;51.386;6.778;2024-02-26T09:52:50;2.87;;;2.30;;
10090;SDS011;5084;51.386;6.778;2024-02-26T09:55:18;2.20;;;1.90;;
10090;SDS011;5084;51.386;6.778;2024-02-26T09:57:45;2.43;;;2.23;;
10090;SDS011;5084;51.386;6.778;2024-02-26T10:00:17;2.00;;;1.80;;
10090;SDS011;5084;51.386;6.778;2024-02-26T10:02:47;3.30;;;2.30;;
10090;SDS011;5084;51.386;6.778;2024-02-26T10:05:17;2.20;;;2.00;;
10090;SDS011;5084;51.386;6.778;2024-02-26T10:07:47;2.13;;;1.90;;
10090;SDS011;5084;51.386;6.778;2024-02-26T10:10:14;2.30;;;2.07;;
10090;SDS011;5084;51.386;6.778;2024-02-26T10:12:40;2.20;;;2.00;;
10090;SDS011;5084;51.386;6.778;2024-02-26T10:15:06;2.77;;;2.03;;
10090;SDS011;5084;51.386;6.778;2024-02-26T10:17:32;2.97;;;2.03;;
10090;SDS011;5084;51.386;6.778;2024-02-26T10:20:31;2.07;;;1.80;;
10090;SDS011;5084;51.386;6.778;2024-02-26T10:22:53;3.93;;;1.80;;
10090;SDS011;5084;51.386;6.778;2024-02-26T10:25:19;2.80;;;2.47;;
10090;SDS011;5084;51.386;6.778;2024-02-26T10:27:45;2.30;;;2.10;;
10090;SDS011;5084;51.386;6.778;2024-02-26T10:30:18;2.47;;;2.27;;
10090;SDS011;5084;51.386;6.778;2024-02-26T10:32:44;2.97;;;2.60;;
10090;SDS011;5084;51.386;6.778;2024-02-26T10:35:17;5.57;;;2.17;;
10090;SDS011;5084;51.386;6.778;2024-02-26T10:37:43;3.07;;;2.23;;
10090;SDS011;5084;51.386;6.778;2024-02-26T10:40:10;3.13;;;2.40;;
10090;SDS011;5084;51.386;6.778;2024-02-26T10:42:36;3.07;;;2.20;;
10090;SDS011;5084;51.386;6.778;2024-02-26T10:45:03;2.50;;;2.30;;
10090;SDS011;5084;51.386;6.778;2024-02-26T10:47:30;2.10;;;1.90;;
10090;SDS011;5084;51.386;6.778;2024-02-26T10:49:58;3.93;;;2.50;;
10090;SDS011;5084;51.386;6.778;2024-02-26T10:52:24;4.67;;;2.17;;
10090;SDS011;5084;51.386;6.778;2024-02-26T10:54:52;2.90;;;2.23;;
10090;SDS011;5084;51.386;6.778;2024-02-26T10:57:19;2.20;;;2.00;;
10090;SDS011;5084;51.386;6.778;2024-02-26T10:59:46;2.43;;;2.23;;
10090;SDS011;5084;51.386;6.778;2024-02-26T11:02:13;2.40;;;2.20;;
10090;SDS011;5084;51.386;6.778;2024-02-26T11:04:39;2.67;;;2.03;;
10090;SDS011;5084;51.386;6.778;2024-02-26T11:07:05;2.70;;;2.40;;
10090;SDS011;5084;51.386;6.778;2024-02-26T11:09:33;2.80;;;2.50;;
10090;SDS011;5084;51.386;6.778;2024-02-26T11:12:01;3.33;;;2.30;;
10090;SDS011;5084;51.386;6.778;2024-02-26T11:14:32;2.83;;;2.63;;
10090;SDS011;5084;51.386;6.778;2024-02-26T11:16:59;3.00;;;2.47;;
10090;SDS011;5084;51.386;6.778;2024-02-26T11:19:25;2.53;;;2.33;;
10090;SDS011;5084;51.386;6.778;2024-02-26T11:21:52;2.87;;;2.57;;
10090;SDS011;5084;51.386;6.778;2024-02-26T11:24:18;2.80;;;2.53;;
10090;SDS011;5084;51.386;6.778;2024-02-26T11:29:13;3.07;;;2.33;;
10090;SDS011;5084;51.386;6.778;2024-02-26T11:31:39;2.90;;;2.70;;
10090;SDS011;5084;51.386;6.778;2024-02-26T11:34:06;2.80;;;2.50;;
10090;SDS011;5084;51.386;6.778;2024-02-26T11:36:33;3.97;;;3.57;;
10090;SDS011;5084;51.386;6.778;2024-02-26T11:38:59;4.43;;;2.90;;
10090;SDS011;5084;51.386;6.778;2024-02-26T11:41:25;3.43;;;2.33;;
10090;SDS011;5084;51.386;6.778;2024-02-26T11:43:52;3.07;;;2.83;;
10090;SDS011;5084;51.386;6.778;2024-02-26T11:46:30;3.03;;;2.57;;
10090;SDS011;5084;51.386;6.778;2024-02-26T11:49:00;2.90;;;2.60;;
10090;SDS011;5084;51.386;6.778;2024-02-26T11:51:27;3.43;;;2.83;;
10090;SDS011;5084;51.386;6.778;2024-02-26T11:53:54;3.33;;;2.90;;
10090;SDS011;5084;51.386;6.778;2024-02-26T11:56:22;4.33;;;2.97;;
10090;SDS011;5084;51.386;6.778;2024-02-26T11:58:59;3.80;;;2.97;;
10090;SDS011;5084;51.386;6.778;2024-02-26T12:01:38;3.30;;;3.00;;
10090;SDS011;5084;51.386;6.778;2024-02-26T12:04:04;3.37;;;3.07;;
10090;SDS011;5084;51.386;6.778;2024-02-26T12:06:31;3.00;;;2.60;;
10090;SDS011;5084;51.386;6.778;2024-02-26T12:08:57;3.33;;;2.97;;
10090;SDS011;5084;51.386;6.778;2024-02-26T12:11:23;3.73;;;3.43;;
10090;SDS011;5084;51.386;6.778;2024-02-26T12:13:53;4.20;;;3.47;;
10090;SDS011;5084;51.386;6.778;2024-02-26T12:16:38;3.33;;;2.93;;
10090;SDS011;5084;51.386;6.778;2024-02-26T12:19:07;5.33;;;2.70;;
10090;SDS011;5084;51.386;6.778;2024-02-26T12:21:34;3.60;;;3.20;;
10090;SDS011;5084;51.386;6.778;2024-02-26T12:26:37;4.33;;;3.63;;
10090;SDS011;5084;51.386;6.778;2024-02-26T12:29:03;4.67;;;2.93;;
10090;SDS011;5084;51.386;6.778;2024-02-26T12:31:29;3.70;;;3.40;;
10090;SDS011;5084;51.386;6.778;2024-02-26T12:33:56;4.50;;;2.90;;
10090;SDS011;5084;51.386;6.778;2024-02-26T12:36:22;3.77;;;3.30;;
10090;SDS011;5084;51.386;6.778;2024-02-26T12:38:50;4.03;;;3.10;;
10090;SDS011;5084;51.386;6.778;2024-02-26T12:41:16;3.40;;;3.10;;
10090;SDS011;5084;51.386;6.778;2024-02-26T12:43:42;4.07;;;2.90;;
10090;SDS011;5084;51.386;6.778;2024-02-26T12:46:08;4.20;;;3.57;;
10090;SDS011;5084;51.386;6.778;2024-02-26T12:48:34;3.80;;;3.13;;
10090;SDS011;5084;51.386;6.778;2024-02-26T12:51:01;4.70;;;3.60;;
10090;SDS011;5084;51.386;6.778;2024-02-26T12:53:27;4.63;;;4.20;;
10090;SDS011;5084;51.386;6.778;2024-02-26T12:55:54;3.90;;;3.47;;
10090;SDS011;5084;51.386;6.778;2024-02-26T12:58:20;4.83;;;4.23;;
10090;SDS011;5084;51.386;6.778;2024-02-26T13:00:50;4.07;;;3.60;;
10090;SDS011;5084;51.386;6.778;2024-02-26T13:03:16;4.53;;;4.13;;
10090;SDS011;5084;51.386;6.778;2024-02-26T13:05:42;4.23;;;3.70;;
10090;SDS011;5084;51.386;6.778;2024-02-26T13:08:08;4.40;;;4.00;;
10090;SDS011;5084;51.386;6.778;2024-02-26T13:10:34;7.13;;;4.30;;
10090;SDS011;5084;51.386;6.778;2024-02-26T13:13:01;4.33;;;3.93;;
10090;SDS011;5084;51.386;6.778;2024-02-26T13:15:28;4.23;;;3.83;;
10090;SDS011;5084;51.386;6.778;2024-02-26T13:17:54;4.53;;;4.10;;
10090;SDS011;5084;51.386;6.778;2024-02-26T13:20:27;5.53;;;4.63;;
10090;SDS011;5084;51.386;6.778;2024-02-26T13:23:01;4.90;;;4.33;;
10090;SDS011;5084;51.386;6.778;2024-02-26T13:25:27;4.87;;;4.17;;
10090;SDS011;5084;51.386;6.778;2024-02-26T13:28:03;6.13;;;4.10;;
10090;SDS011;5084;51.386;6.778;2024-02-26T13:30:29;4.80;;;4.30;;
10090;SDS011;5084;51.386;6.778;2024-02-26T13:32:55;5.17;;;4.77;;
10090;SDS011;5084;51.386;6.778;2024-02-26T13:35:21;5.77;;;4.40;;
10090;SDS011;5084;51.386;6.778;2024-02-26T13:37:47;4.37;;;3.97;;
10090;SDS011;5084;51.386;6.778;2024-02-26T13:40:13;4.87;;;4.37;;
10090;SDS011;5084;51.386;6.778;2024-02-26T13:42:40;5.63;;;4.30;;
10090;SDS011;5084;51.386;6.778;2024-02-26T13:45:06;5.33;;;4.50;;
10090;SDS011;5084;51.386;6.778;2024-02-26T13:47:33;5.57;;;4.03;;
10090;SDS011;5084;51.386;6.778;2024-02-26T13:49:59;4.20;;;3.80;;
10090;SDS011;5084;51.386;6.778;2024-02-26T13:52:25;7.03;;;4.30;;
10090;SDS011;5084;51.386;6.778;2024-02-26T13:54:52;4.93;;;4.20;;
10090;SDS011;5084;51.386;6.778;2024-02-26T13:57:21;4.90;;;4.30;;
10090;SDS011;5084;51.386;6.778;2024-02-26T13:59:47;3.90;;;3.50;;
10090;SDS011;5084;51.386;6.778;2024-02-26T14:02:13;6.57;;;4.60;;
10090;SDS011;5084;51.386;6.778;2024-02-26T14:04:39;7.00;;;3.97;;
10090;SDS011;5084;51.386;6.778;2024-02-26T14:07:05;4.90;;;4.13;;
10090;SDS011;5084;51.386;6.778;2024-02-26T14:09:31;4.97;;;4.47;;
10090;SDS011;5084;51.386;6.778;2024-02-26T14:11:58;4.83;;;4.40;;
10090;SDS011;5084;51.386;6.778;2024-02-26T14:14:24;4.30;;;3.87;;
10090;SDS011;5084;51.386;6.778;2024-02-26T14:16:51;4.13;;;3.67;;
10090;SDS011;5084;51.386;6.778;2024-02-26T14:19:17;4.23;;;3.70;;
10090;SDS011;5084;51.386;6.778;2024-02-26T14:21:43;4.70;;;3.50;;
10090;SDS011;5084;51.386;6.778;2024-02-26T14:24:09;5.70;;;3.60;;
10090;SDS011;5084;51.386;6.778;2024-02-26T14:26:35;6.10;;;3.60;;
10090;SDS011;5084;51.386;6.778;2024-02-26T14:29:01;4.77;;;3.83;;
10090;SDS011;5084;51.386;6.778;2024-02-26T14:31:27;5.03;;;4.10;;
10090;SDS011;5084;51.386;6.778;2024-02-26T14:33:53;4.93;;;3.87;;
10090;SDS011;5084;51.386;6.778;2024-02-26T14:36:20;6.23;;;3.90;;
10090;SDS011;5084;51.386;6.778;2024-02-26T14:38:46;3.70;;;3.40;;
10090;SDS011;5084;51.386;6.778;2024-02-26T14:41:12;3.70;;;2.90;;
10090;SDS011;5084;51.386;6.778;2024-02-26T14:43:38;4.63;;;4.07;;
10090;SDS011;5084;51.386;6.778;2024-02-26T14:46:04;3.60;;;2.77;;
10090;SDS011;5084;51.386;6.778;2024-02-26T14:48:30;3.43;;;3.13;;
10090;SDS011;5084;51.386;6.778;2024-02-26T14:50:57;5.27;;;3.57;;
10090;SDS011;5084;51.386;6.778;2024-02-26T14:53:24;3.30;;;3.00;;
10090;SDS011;5084;51.386;6.778;2024-02-26T14:55:50;4.63;;;3.43;;
10090;SDS011;5084;51.386;6.778;2024-02-26T14:58:16;4.53;;;3.53;;
10090;SDS011;5084;51.386;6.778;2024-02-26T15:00:42;3.93;;;3.40;;
10090;SDS011;5084;51.386;6.778;2024-02-26T15:03:08;3.83;;;3.40;;